Time;durP1;ratioP1;P1;durP2;ratioP2;P2;SDS_P1;SDS_P2;PMS_P1;PMS_P2;Temp;Humidity;BMP_temperature;BMP_pressure;BME280_temperature;BME280_humidity;BME280_pressure;Samples;Min_cycle;Max_cycle;Signal;HPM_P1;HPM_P2
2021/01/04 00:00:02;;;;;;;15.88;7.65;;;;;;;7.26;67.25;93878.13;5079989;28;20051;-73
2021/01/04 00:02:46;;;;;;;18.02;8.80;;;;;;;7.23;67.55;93874.22;5089119;28;20036;-72
2021/01/04 00:05:40;;;;;;;9.95;6.10;;;;;;;7.20;67.65;93879.31;5087656;28;20437;-71
2021/01/04 00:08:20;;;;;;;11.95;6.03;;;;;;;7.18;67.85;93876.16;5074782;28;20063;-72
2021/01/04 00:11:23;;;;;;;12.43;6.55;;;;;;;7.17;67.94;93880.69;5085996;28;20076;-73
2021/01/04 00:13:56;;;;;;;12.95;5.85;;;;;;;7.15;68.16;93872.22;5088541;28;20059;-73
2021/01/04 00:16:43;;;;;;;13.27;6.72;;;;;;;7.14;68.17;93869.88;5089151;28;20036;-74
2021/01/04 00:19:11;;;;;;;13.15;6.60;;;;;;;7.13;68.09;93878.91;5094096;28;20024;-74
2021/01/04 00:21:59;;;;;;;10.55;5.50;;;;;;;7.11;68.09;93881.84;5093552;28;20030;-73
2021/01/04 00:24:29;;;;;;;11.90;6.10;;;;;;;7.05;68.09;93874.28;5094005;28;20441;-74
2021/01/04 00:27:06;;;;;;;11.73;6.68;;;;;;;6.93;68.00;93869.41;5093829;28;20023;-74
2021/01/04 00:29:32;;;;;;;12.68;6.55;;;;;;;6.93;68.12;93872.84;5092338;28;20103;-73
2021/01/04 00:32:04;;;;;;;10.88;5.90;;;;;;;6.96;67.93;93874.94;5091617;28;20031;-74
2021/01/04 00:34:49;;;;;;;10.50;5.55;;;;;;;6.97;67.77;93867.75;5093073;28;20383;-74
2021/01/04 00:37:29;;;;;;;10.60;5.63;;;;;;;6.91;68.16;93864.41;5091685;28;20044;-74
2021/01/04 00:40:03;;;;;;;9.93;5.75;;;;;;;6.92;67.87;93863.34;5091487;28;20065;-73
2021/01/04 00:42:29;;;;;;;12.77;6.13;;;;;;;6.87;68.03;93863.41;5093152;28;20032;-74
2021/01/04 00:45:10;;;;;;;12.32;5.53;;;;;;;6.83;68.13;93849.16;5091624;28;20043;-73
2021/01/04 00:47:51;;;;;;;13.37;7.27;;;;;;;6.81;68.18;93846.00;5092246;28;20118;-74
2021/01/04 00:50:31;;;;;;;14.23;5.55;;;;;;;6.73;68.35;93857.25;5092523;28;20411;-73
2021/01/04 00:53:18;;;;;;;11.10;6.10;;;;;;;6.66;68.51;93848.91;5091554;28;20131;-73
2021/01/04 00:56:03;;;;;;;11.02;5.85;;;;;;;6.62;68.70;93846.03;5093302;28;20067;-74
2021/01/04 00:58:37;;;;;;;10.80;6.20;;;;;;;6.58;68.58;93851.13;5091901;28;20024;-74
2021/01/04 01:01:12;;;;;;;12.02;6.15;;;;;;;6.60;68.56;93856.91;5093039;28;20202;-74
2021/01/04 01:03:55;;;;;;;14.45;6.53;;;;;;;6.56;68.52;93845.31;5093257;28;20070;-73
2021/01/04 01:06:30;;;;;;;13.55;6.07;;;;;;;6.41;69.06;93840.25;5093049;28;20038;-74
2021/01/04 01:08:57;;;;;;;14.27;6.63;;;;;;;6.17;70.14;93835.81;5085393;28;20024;-72
2021/01/04 01:12:00;;;;;;;14.63;7.07;;;;;;;6.01;70.90;93842.38;5071720;28;20086;-72
2021/01/04 01:14:40;;;;;;;;;;;;;;;5.79;71.77;93833.09;5091003;28;20032;-72
2021/01/04 01:17:11;;;;;;;12.73;6.07;;;;;;;5.82;71.92;93840.47;5092137;28;19911;-73
2021/01/04 01:19:47;;;;;;;17.02;7.30;;;;;;;5.87;71.93;93833.53;5091987;28;20026;-73
2021/01/04 01:22:21;;;;;;;14.55;7.15;;;;;;;5.90;71.70;93832.97;5091703;28;20487;-72
2021/01/04 01:24:47;;;;;;;12.90;5.78;;;;;;;5.83;72.08;93822.75;5091964;28;20584;-72
2021/01/04 01:27:31;;;;;;;11.02;5.90;;;;;;;5.85;71.90;93823.25;5090495;28;20066;-72
2021/01/04 01:30:24;;;;;;;12.40;6.18;;;;;;;5.73;72.45;93828.94;5091228;28;20031;-72
2021/01/04 01:33:08;;;;;;;12.40;5.90;;;;;;;5.53;73.12;93823.88;5081876;28;20028;-72
2021/01/04 01:36:12;;;;;;;14.15;5.93;;;;;;;5.60;73.14;93830.41;5089917;28;20365;-72
2021/01/04 01:38:56;;;;;;;11.10;5.82;;;;;;;5.69;73.01;93821.84;5091305;28;20032;-73
2021/01/04 01:41:39;;;;;;;12.02;5.88;;;;;;;5.80;72.53;93816.16;5091602;28;20035;-72
2021/01/04 01:44:07;;;;;;;14.25;6.28;;;;;;;5.88;72.54;93814.72;5091485;28;20031;-72
2021/01/04 01:46:43;;;;;;;11.00;5.65;;;;;;;5.98;72.35;93819.13;5091173;28;20028;-72
2021/01/04 01:49:46;;;;;;;11.15;5.53;;;;;;;6.12;71.96;93824.50;5091518;28;20468;-72
2021/01/04 01:52:20;;;;;;;15.45;6.07;;;;;;;6.15;71.59;93822.09;5091075;28;20051;-73
2021/01/04 01:54:51;;;;;;;11.07;5.57;;;;;;;6.19;71.57;93823.09;5091276;28;20080;-72
2021/01/04 01:57:35;;;;;;;11.52;5.60;;;;;;;6.28;71.39;93839.09;5091539;28;20039;-73
2021/01/04 02:00:23;;;;;;;10.18;5.50;;;;;;;6.33;71.96;93848.84;5091172;28;20035;-73
2021/01/04 02:02:57;;;;;;;11.40;5.68;;;;;;;6.41;71.70;93853.47;5064982;28;20086;-73
2021/01/04 02:05:47;;;;;;;12.40;5.47;;;;;;;6.42;71.94;93855.06;5071185;28;20024;-73
2021/01/04 02:08:18;;;;;;;13.30;5.88;;;;;;;6.39;72.06;93847.69;5089339;28;20028;-73
2021/01/04 02:10:49;;;;;;;11.63;6.07;;;;;;;6.39;72.41;93839.75;5072983;28;20058;-73
2021/01/04 02:13:28;;;;;;;12.63;6.78;;;;;;;6.42;72.42;93837.31;5090106;28;20526;-73
2021/01/04 02:16:02;;;;;;;12.93;5.90;;;;;;;6.57;72.56;93849.56;5089716;28;20384;-73
2021/01/04 02:18:57;;;;;;;9.25;5.53;;;;;;;6.62;72.57;93833.59;5089382;28;20487;-73
2021/01/04 02:21:47;;;;;;;9.77;5.70;;;;;;;6.68;72.73;93828.22;5091123;28;20491;-73
2021/01/04 02:24:15;;;;;;;12.45;5.70;;;;;;;6.74;72.91;93811.94;5090112;28;20483;-72
2021/01/04 02:26:43;;;;;;;11.35;5.88;;;;;;;6.80;72.68;93815.31;5091547;28;20150;-74
2021/01/04 02:29:12;;;;;;;11.98;6.38;;;;;;;6.89;72.93;93816.22;5091509;28;20016;-71
2021/01/04 02:31:42;;;;;;;11.68;5.60;;;;;;;6.94;72.57;93828.56;5089714;28;20028;-72
2021/01/04 02:34:11;;;;;;;12.25;5.38;;;;;;;6.88;72.53;93806.69;5090714;28;20115;-72
2021/01/04 02:36:43;;;;;;;10.27;5.50;;;;;;;6.89;72.87;93810.91;5089804;28;20028;-72
2021/01/04 02:39:18;;;;;;;22.30;7.07;;;;;;;6.95;72.68;93801.78;5090150;28;20016;-72
2021/01/04 02:41:49;;;;;;;9.35;5.03;;;;;;;6.93;73.10;93811.13;5090345;28;20103;-72
2021/01/04 02:44:14;;;;;;;10.05;5.60;;;;;;;6.85;73.21;93791.38;5084192;28;20032;-72
2021/01/04 02:46:48;;;;;;;9.52;5.43;;;;;;;6.80;73.60;93786.94;5068727;28;20377;-71
2021/01/04 02:49:50;;;;;;;14.27;5.90;;;;;;;6.87;73.73;93783.91;5089515;28;20051;-72
2021/01/04 02:52:23;;;;;;;12.60;6.28;;;;;;;6.96;73.72;93791.97;5089280;28;20059;-72
2021/01/04 02:54:57;;;;;;;12.20;7.10;;;;;;;7.00;73.48;93799.06;5089122;28;20032;-72
2021/01/04 02:57:34;;;;;;;12.43;6.30;;;;;;;7.00;73.40;93801.72;5090297;28;20388;-72
2021/01/04 03:00:08;;;;;;;12.43;5.63;;;;;;;7.06;73.12;93806.91;5090077;28;20024;-71
2021/01/04 03:02:41;;;;;;;17.55;7.28;;;;;;;7.10;73.07;93805.25;5090221;28;20028;-72
2021/01/04 03:05:16;;;;;;;15.88;7.85;;;;;;;7.17;73.00;93800.38;5089937;28;20047;-72
2021/01/04 03:07:48;;;;;;;13.38;7.15;;;;;;;7.22;73.03;93808.22;5088774;28;20119;-72
2021/01/04 03:10:17;;;;;;;;;;;;;;;7.20;73.12;93816.47;5089387;28;20545;-72
2021/01/04 03:12:52;;;;;;;14.25;6.20;;;;;;;7.23;73.11;93801.84;5089872;28;19994;-72
2021/01/04 03:15:36;;;;;;;15.75;6.93;;;;;;;7.22;73.19;93806.38;5088386;28;20032;-72
2021/01/04 03:18:10;;;;;;;14.23;6.85;;;;;;;7.23;73.22;93801.84;5089702;28;20020;-74
2021/01/04 03:20:36;;;;;;;18.17;8.13;;;;;;;7.27;72.99;93797.53;5089600;28;20522;-73
2021/01/04 03:23:02;;;;;;;15.85;7.88;;;;;;;7.30;73.35;93804.88;5089533;28;20039;-72
2021/01/04 03:25:27;;;;;;;18.08;9.27;;;;;;;7.33;73.17;93800.88;5089666;28;20035;-72
2021/01/04 03:27:53;;;;;;;17.98;8.48;;;;;;;7.38;72.90;93785.66;5089661;28;20532;-72
2021/01/04 03:30:19;;;;;;;18.48;8.80;;;;;;;7.41;72.73;93784.28;5089545;28;20377;-72
2021/01/04 03:32:45;;;;;;;15.43;8.45;;;;;;;7.39;72.73;93771.31;5089595;28;20030;-72
2021/01/04 03:35:11;;;;;;;17.80;8.77;;;;;;;7.41;72.29;93753.25;5088276;28;20491;-72
2021/01/04 03:37:36;;;;;;;15.85;9.23;;;;;;;7.43;72.29;93752.97;5088209;28;20027;-73
2021/01/04 03:40:03;;;;;;;15.80;8.48;;;;;;;7.43;72.42;93753.75;5089687;28;20034;-72
2021/01/04 03:42:28;;;;;;;16.65;8.77;;;;;;;7.41;72.41;93749.81;5089432;28;20110;-72
2021/01/04 03:44:54;;;;;;;16.70;8.85;;;;;;;7.39;72.25;93747.47;5089617;28;20103;-72
2021/01/04 03:47:19;;;;;;;19.63;9.80;;;;;;;7.36;72.52;93748.03;5089319;28;20408;-73
2021/01/04 03:49:45;;;;;;;21.35;10.75;;;;;;;7.34;72.37;93755.50;5087704;28;20055;-72
2021/01/04 03:52:10;;;;;;;29.00;13.98;;;;;;;7.32;72.45;93760.31;5088671;28;20050;-72
2021/01/04 03:54:35;;;;;;;40.03;16.17;;;;;;;7.33;72.48;93745.22;5089115;28;20024;-72
2021/01/04 03:57:01;;;;;;;34.25;16.08;;;;;;;7.35;72.37;93745.69;5088967;28;20106;-72
2021/01/04 03:59:26;;;;;;;36.55;15.15;;;;;;;7.34;72.42;93739.59;5089152;28;20433;-72
2021/01/04 04:01:56;;;;;;;32.75;12.60;;;;;;;7.32;72.52;93731.16;5089100;28;20027;-72
2021/01/04 04:04:23;;;;;;;26.52;11.35;;;;;;;7.33;72.25;93737.25;5088076;28;20108;-72
2021/01/04 04:06:50;;;;;;;30.70;14.02;;;;;;;7.33;72.07;93742.56;5089319;28;20478;-73
2021/01/04 04:09:18;;;;;;;25.60;12.13;;;;;;;7.34;72.26;93731.63;5088956;28;20028;-72
2021/01/04 04:11:44;;;;;;;31.40;12.77;;;;;;;7.34;72.22;93721.03;5087778;28;20036;-72
2021/01/04 04:14:10;;;;;;;28.52;12.93;;;;;;;7.35;72.14;93705.94;5079939;28;20411;-69
2021/01/04 04:16:36;;;;;;;23.65;11.57;;;;;;;7.36;72.37;93705.63;5072240;28;20089;-68
2021/01/04 04:19:02;;;;;;;16.20;9.40;;;;;;;7.38;72.39;93707.97;5068406;28;20032;-68
2021/01/04 04:21:28;;;;;;;20.02;9.75;;;;;;;7.36;72.46;93697.66;5067517;28;20416;-68
2021/01/04 04:23:53;;;;;;;17.50;9.18;;;;;;;7.36;72.85;93686.28;5081853;28;20032;-66
2021/01/04 04:26:22;;;;;;;15.02;8.18;;;;;;;7.35;72.67;93685.50;5067544;28;20115;-67
2021/01/04 04:28:48;;;;;;;17.08;8.45;;;;;;;7.39;72.51;93694.44;5086705;28;20074;-66
2021/01/04 04:31:14;;;;;;;14.25;8.00;;;;;;;7.44;72.52;93702.25;5087633;28;20113;-66
2021/01/04 04:33:41;;;;;;;14.35;7.75;;;;;;;7.46;72.60;93701.19;5081342;28;20039;-66
2021/01/04 04:36:08;;;;;;;13.82;7.40;;;;;;;7.48;72.55;93712.28;5067231;28;20135;-67
2021/01/04 04:38:33;;;;;;;13.15;7.22;;;;;;;7.48;72.60;93705.13;5067221;28;20035;-66
2021/01/04 04:40:59;;;;;;;15.98;8.32;;;;;;;7.47;72.52;93687.66;5085144;28;20028;-66
2021/01/04 04:43:35;;;;;;;16.05;9.43;;;;;;;7.50;72.49;93688.91;5088957;28;20418;-67
2021/01/04 04:46:06;;;;;;;16.95;9.10;;;;;;;7.50;72.63;93689.69;5082788;28;20476;-67
2021/01/04 04:48:55;;;;;;;15.98;9.30;;;;;;;7.49;72.79;93684.69;5068178;28;20012;-66
2021/01/04 04:51:28;;;;;;;16.65;8.90;;;;;;;7.47;72.72;93702.75;5082845;28;20491;-66
2021/01/04 04:54:20;;;;;;;16.92;7.63;;;;;;;7.44;72.80;93686.34;5088273;28;20048;-66
2021/01/04 04:57:04;;;;;;;16.55;7.80;;;;;;;7.42;72.77;93687.75;5088525;28;20032;-67
2021/01/04 05:00:07;;;;;;;17.17;8.02;;;;;;;7.40;72.68;93693.34;5077195;28;20099;-67
2021/01/04 05:03:00;;;;;;;12.07;7.25;;;;;;;7.39;72.89;93680.41;5068379;28;20507;-66
2021/01/04 05:06:02;;;;;;;16.95;7.50;;;;;;;7.36;73.03;93676.44;5091775;28;20024;-66
2021/01/04 05:08:40;;;;;;;14.52;7.85;;;;;;;7.36;72.87;93692.34;5086109;28;20032;-67
2021/01/04 05:11:07;;;;;;;20.73;7.88;;;;;;;7.37;72.84;93695.81;5090762;28;20028;-66
2021/01/04 05:13:41;;;;;;;17.60;7.55;;;;;;;7.36;72.93;93679.09;5089636;28;21006;-66
2021/01/04 05:16:19;;;;;;;22.00;8.75;;;;;;;7.36;73.04;93684.41;5090191;28;20093;-66
2021/01/04 05:19:04;;;;;;;19.30;7.68;;;;;;;7.38;73.03;93676.16;5091581;28;20050;-67
2021/01/04 05:22:08;;;;;;;14.32;7.57;;;;;;;7.38;73.08;93678.81;5090408;28;20028;-66
2021/01/04 05:25:01;;;;;;;15.88;7.90;;;;;;;7.35;73.29;93677.53;5091723;28;20016;-73
2021/01/04 05:27:32;;;;;;;15.82;7.43;;;;;;;7.38;73.41;93657.59;5090395;28;20024;-73
2021/01/04 05:30:16;;;;;;;17.23;9.70;;;;;;;7.39;73.21;93649.34;5090069;28;20447;-72
2021/01/04 05:32:44;;;;;;;14.05;8.07;;;;;;;7.38;73.12;93637.16;5091611;28;20024;-73
2021/01/04 05:35:12;;;;;;;19.92;11.00;;;;;;;7.36;73.05;93641.97;5091601;28;20027;-72
2021/01/04 05:38:01;;;;;;;24.77;13.35;;;;;;;7.35;73.10;93631.69;5091728;28;20028;-72
2021/01/04 05:40:42;;;;;;;19.73;11.45;;;;;;;7.31;73.22;93625.41;5091452;28;20028;-71
2021/01/04 05:43:43;;;;;;;17.17;9.40;;;;;;;7.30;73.52;93629.13;5090019;28;20099;-71
2021/01/04 05:46:30;;;;;;;21.02;10.68;;;;;;;7.28;73.66;93626.00;5091310;28;20024;-71
2021/01/04 05:49:08;;;;;;;17.38;10.13;;;;;;;7.32;73.34;93617.16;5090136;28;20462;-72
2021/01/04 05:51:41;;;;;;;18.95;10.00;;;;;;;7.32;73.53;93614.50;5091283;28;20051;-72
2021/01/04 05:54:07;;;;;;;17.35;10.07;;;;;;;7.30;73.43;93616.66;5091088;28;20487;-72
2021/01/04 05:56:33;;;;;;;17.35;9.40;;;;;;;7.26;73.75;93607.72;5091450;28;20059;-71
2021/01/04 05:59:13;;;;;;;20.33;10.05;;;;;;;7.25;73.87;93619.44;5091295;28;20177;-72
2021/01/04 06:01:41;;;;;;;23.02;10.27;;;;;;;7.23;73.96;93618.94;5091340;28;20081;-71
2021/01/04 06:04:10;;;;;;;20.30;10.98;;;;;;;7.28;74.04;93610.09;5091134;28;20036;-72
2021/01/04 06:06:59;;;;;;;21.60;12.00;;;;;;;7.30;74.13;93614.00;5090959;28;20110;-71
2021/01/04 06:09:25;;;;;;;25.13;12.15;;;;;;;7.29;74.05;93609.81;5087817;28;20050;-72
2021/01/04 06:11:50;;;;;;;21.05;10.95;;;;;;;7.37;73.83;93614.41;5071083;28;20051;-72
2021/01/04 06:14:16;;;;;;;18.30;10.63;;;;;;;7.41;73.94;93611.94;5068967;28;20485;-72
2021/01/04 06:16:44;;;;;;;22.45;10.25;;;;;;;7.44;73.66;93603.38;5070746;28;20086;-72
2021/01/04 06:19:16;;;;;;;16.17;9.95;;;;;;;7.48;73.69;93608.88;5069573;28;20025;-72
2021/01/04 06:21:57;;;;;;;14.38;8.30;;;;;;;7.47;73.67;93613.41;5069316;28;20086;-72
2021/01/04 06:24:30;;;;;;;15.55;7.45;;;;;;;7.51;73.51;93608.25;5077684;28;20035;-72
2021/01/04 06:27:28;;;;;;;16.40;7.88;;;;;;;7.49;73.69;93599.81;5090472;28;20103;-72
2021/01/04 06:29:54;;;;;;;12.90;7.60;;;;;;;7.49;73.71;93605.13;5089616;28;20042;-72
2021/01/04 06:32:32;;;;;;;14.38;8.07;;;;;;;7.51;73.61;93597.66;5090550;28;20410;-73
2021/01/04 06:35:20;;;;;;;11.90;7.68;;;;;;;7.49;73.94;93597.16;5084317;28;20021;-73
2021/01/04 06:37:46;;;;;;;15.18;9.23;;;;;;;7.52;73.82;93591.28;5089266;28;20585;-74
2021/01/04 06:40:38;;;;;;;17.90;9.85;;;;;;;7.50;74.13;93604.06;5088191;28;20088;-73
2021/01/04 06:43:28;;;;;;;16.88;10.52;;;;;;;7.54;74.12;93591.75;5105730;28;20071;-73
2021/01/04 06:46:21;;;;;;;20.85;10.98;;;;;;;7.60;73.96;93585.25;5085135;28;20066;-74
2021/01/04 06:48:58;;;;;;;26.25;13.65;;;;;;;7.64;73.67;93575.63;5090091;28;20392;-74
2021/01/04 06:51:45;;;;;;;16.08;9.00;;;;;;;7.71;73.59;93578.63;5081644;28;20095;-73
2021/01/04 06:54:41;;;;;;;14.98;8.52;;;;;;;7.70;73.49;93582.38;5088526;28;20048;-73
2021/01/04 06:57:15;;;;;;;18.08;10.38;;;;;;;7.72;73.61;93577.53;5078766;28;20043;-73
2021/01/04 06:59:41;;;;;;;19.40;10.60;;;;;;;7.77;73.73;93574.75;5089711;28;20027;-73
2021/01/04 07:02:33;;;;;;;17.98;10.55;;;;;;;7.81;73.59;93580.25;5081675;28;20395;-73
2021/01/04 07:05:18;;;;;;;;;;;;;;;7.79;73.79;93579.75;5089753;28;20024;-72
2021/01/04 07:08:04;;;;;;;16.88;8.85;;;;;;;7.78;73.86;93589.59;5068594;28;20331;-73
2021/01/04 07:10:45;;;;;;;19.45;8.75;;;;;;;7.80;74.07;93594.63;5088736;28;20036;-73
2021/01/04 07:13:39;;;;;;;21.00;9.77;;;;;;;7.82;73.71;93576.53;5089769;28;20091;-73
2021/01/04 07:16:17;;;;;;;16.75;9.80;;;;;;;7.87;73.69;93583.56;5079116;28;20046;-73
2021/01/04 07:19:04;;;;;;;18.80;9.23;;;;;;;7.91;73.68;93573.91;5087787;28;20526;-73
2021/01/04 07:21:42;;;;;;;21.98;10.57;;;;;;;7.94;73.50;93555.53;5088313;28;20547;-73
2021/01/04 07:24:15;;;;;;;18.05;10.30;;;;;;;7.99;73.20;93550.06;5089792;28;20128;-72
2021/01/04 07:26:50;;;;;;;20.40;9.52;;;;;;;8.02;73.33;93548.72;5088196;28;20035;-72
2021/01/04 07:29:38;;;;;;;16.13;7.93;;;;;;;8.08;72.94;93536.88;5070996;28;20034;-72
2021/01/04 07:32:30;;;;;;;13.73;6.95;;;;;;;8.14;72.50;93535.66;5102547;28;20372;-72
2021/01/04 07:35:00;;;;;;;14.63;7.17;;;;;;;8.20;72.61;93539.75;5096280;28;20114;-71
2021/01/04 07:37:56;;;;;;;14.75;6.60;;;;;;;8.28;72.28;93545.38;5082609;28;21669;-71
2021/01/04 07:40:41;;;;;;;12.45;5.32;;;;;;;8.31;72.40;93539.47;5103445;28;20104;-72
2021/01/04 07:43:28;;;;;;;11.25;6.60;;;;;;;8.37;72.15;93517.78;5072774;28;20024;-69
2021/01/04 07:46:30;;;;;;;14.30;5.15;;;;;;;8.41;71.86;93518.75;5088567;28;20039;-72
2021/01/04 07:49:31;;;;;;;10.20;5.55;;;;;;;8.52;71.46;93510.50;5084779;28;20020;-69
2021/01/04 07:52:02;;;;;;;11.18;4.82;;;;;;;8.57;71.61;93505.84;5087965;28;20046;-69
2021/01/04 07:54:37;;;;;;;10.13;5.23;;;;;;;8.58;71.26;93502.09;5081706;28;20020;-67
2021/01/04 07:57:12;;;;;;;6.70;4.10;;;;;;;8.67;71.17;93509.28;5084179;28;20016;-70
2021/01/04 07:59:56;;;;;;;11.27;4.25;;;;;;;8.72;71.13;93511.81;5088919;28;20031;-71
2021/01/04 08:02:40;;;;;;;10.18;4.00;;;;;;;8.76;70.68;93502.13;5089231;28;20092;-73
2021/01/04 08:05:24;;;;;;;10.50;3.60;;;;;;;8.87;70.57;93492.00;5073185;28;20032;-71
2021/01/04 08:08:31;;;;;;;11.45;4.85;;;;;;;8.94;70.27;93487.78;5077768;28;20556;-69
2021/01/04 08:11:15;;;;;;;11.45;5.35;;;;;;;9.06;69.97;93489.84;5059184;28;20040;-69
2021/01/04 08:14:17;;;;;;;12.55;6.10;;;;;;;9.14;69.44;93501.53;5088617;28;20074;-70
2021/01/04 08:16:48;;;;;;;6.60;4.03;;;;;;;9.21;69.04;93496.56;5073152;28;20476;-70
2021/01/04 08:19:17;;;;;;;8.88;5.63;;;;;;;9.26;69.15;93499.06;5079255;28;20415;-70
2021/01/04 08:22:12;;;;;;;13.95;7.22;;;;;;;9.29;68.91;93487.03;5084535;28;20039;-70
2021/01/04 08:24:43;;;;;;;9.77;5.35;;;;;;;9.35;68.68;93478.56;5077553;28;20101;-70
2021/01/04 08:27:36;;;;;;;10.05;3.95;;;;;;;9.38;68.15;93475.28;5073204;28;20024;-70
2021/01/04 08:30:16;;;;;;;9.13;3.60;;;;;;;9.42;68.07;93473.56;5075491;28;20073;-70
2021/01/04 08:32:52;;;;;;;7.25;3.30;;;;;;;9.44;67.61;93471.38;5084344;28;20073;-70
2021/01/04 08:35:29;;;;;;;9.15;3.78;;;;;;;9.42;67.54;93465.59;5085691;28;20050;-70
2021/01/04 08:37:59;;;;;;;8.63;3.47;;;;;;;9.50;67.41;93468.53;5073435;28;20634;-69
2021/01/04 08:40:34;;;;;;;12.38;3.88;;;;;;;9.45;67.14;93456.19;5076695;28;20028;-70
2021/01/04 08:43:04;;;;;;;8.88;4.40;;;;;;;9.49;67.29;93453.69;5081078;28;20028;-70
2021/01/04 08:45:45;;;;;;;6.95;3.83;;;;;;;9.50;67.15;93447.25;5082498;28;20036;-70
2021/01/04 08:48:16;;;;;;;9.52;3.45;;;;;;;9.42;67.02;93432.84;5084749;28;20020;-69
2021/01/04 08:50:45;;;;;;;7.40;3.65;;;;;;;9.40;66.76;93429.72;5076573;28;20028;-70
2021/01/04 08:53:13;;;;;;;6.38;3.10;;;;;;;9.34;67.65;93410.53;5077517;28;20045;-69
2021/01/04 08:55:39;;;;;;;9.13;3.65;;;;;;;9.34;67.18;93415.03;5087012;28;20528;-69
2021/01/04 08:58:19;;;;;;;7.70;3.53;;;;;;;9.33;67.37;93403.63;5083785;28;20103;-70
2021/01/04 09:01:01;;;;;;;9.98;3.78;;;;;;;9.23;67.56;93404.72;5077234;28;20035;-70
2021/01/04 09:03:34;;;;;;;6.82;3.33;;;;;;;9.28;67.56;93416.28;5108363;28;20123;-69
2021/01/04 09:06:11;;;;;;;10.13;3.67;;;;;;;9.29;67.57;93402.69;5086140;28;20055;-70
2021/01/04 09:08:42;;;;;;;6.40;3.58;;;;;;;9.31;67.61;93397.84;5089169;28;20051;-71
2021/01/04 09:11:08;;;;;;;9.32;3.80;;;;;;;9.24;67.99;93405.53;5083829;28;20070;-70
2021/01/04 09:13:37;;;;;;;8.75;3.40;;;;;;;9.33;67.87;93406.28;5084082;28;20016;-71
2021/01/04 09:16:14;;;;;;;6.47;3.67;;;;;;;9.37;67.22;93401.91;5080508;28;20040;-70
2021/01/04 09:18:49;;;;;;;14.25;3.45;;;;;;;9.41;67.37;93413.47;5094191;28;20035;-70
2021/01/04 09:21:36;;;;;;;9.65;3.58;;;;;;;9.43;67.24;93408.59;5089268;28;20108;-70
2021/01/04 09:24:15;;;;;;;8.73;3.00;;;;;;;9.52;67.44;93405.16;5104944;28;20031;-71
2021/01/04 09:26:42;;;;;;;7.82;3.83;;;;;;;9.61;66.50;93392.63;5076923;28;20024;-70
2021/01/04 09:29:25;;;;;;;5.97;4.07;;;;;;;9.65;66.42;93385.56;5086658;28;20024;-70
2021/01/04 09:32:05;;;;;;;8.40;3.75;;;;;;;9.60;66.58;93381.16;5083297;28;20028;-70
2021/01/04 09:34:31;;;;;;;19.90;9.40;;;;;;;9.67;66.77;93380.69;5080719;28;20472;-70
2021/01/04 09:37:03;;;;;;;13.60;5.15;;;;;;;9.64;66.81;93386.66;5081081;28;20027;-70
2021/01/04 09:39:31;;;;;;;8.60;4.40;;;;;;;9.65;66.74;93377.59;5080266;28;20174;-71
2021/01/04 09:41:59;;;;;;;8.45;3.97;;;;;;;9.63;66.80;93364.59;5074150;28;20093;-71
2021/01/04 09:44:25;;;;;;;6.32;3.55;;;;;;;9.61;66.79;93376.66;5082114;28;20038;-71
2021/01/04 09:46:53;;;;;;;10.45;4.28;;;;;;;9.57;66.60;93383.72;5079942;28;20030;-71
2021/01/04 09:49:28;;;;;;;8.43;3.90;;;;;;;9.51;66.55;93383.09;5085479;28;20048;-71
2021/01/04 09:52:04;;;;;;;12.30;4.07;;;;;;;9.41;66.82;93384.22;5089261;28;20505;-70
2021/01/04 09:54:39;;;;;;;8.05;4.35;;;;;;;9.39;66.47;93380.31;5089907;28;20348;-71
2021/01/04 09:57:07;;;;;;;7.70;4.30;;;;;;;9.39;66.84;93367.78;5091271;28;20060;-71
2021/01/04 09:59:41;;;;;;;13.95;4.75;;;;;;;9.42;67.12;93380.47;5085556;28;20111;-71
2021/01/04 10:02:15;;;;;;;12.40;5.13;;;;;;;9.51;66.62;93377.00;5082308;28;20073;-71
2021/01/04 10:04:42;;;;;;;10.82;5.15;;;;;;;9.54;66.50;93371.03;5082590;28;20038;-71
2021/01/04 10:07:10;;;;;;;11.20;6.25;;;;;;;9.54;66.64;93365.72;5075598;28;20037;-72
2021/01/04 10:09:41;;;;;;;17.80;7.57;;;;;;;9.61;66.74;93352.72;5089895;28;20502;-73
2021/01/04 10:12:08;;;;;;;23.73;7.07;;;;;;;9.54;66.49;93355.84;5089724;28;20074;-72
2021/01/04 10:14:33;;;;;;;10.68;4.90;;;;;;;9.54;66.49;93357.72;5090956;28;20028;-72
2021/01/04 10:17:01;;;;;;;9.35;4.93;;;;;;;9.51;66.82;93345.06;5089686;28;20026;-72
2021/01/04 10:19:40;;;;;;;8.45;5.47;;;;;;;9.59;66.81;93333.63;5090455;28;20038;-72
2021/01/04 10:22:11;;;;;;;10.57;5.80;;;;;;;9.66;66.41;93336.56;5090765;28;20373;-73
2021/01/04 10:24:53;;;;;;;13.60;7.45;;;;;;;9.75;65.94;93334.66;5079192;28;20067;-72
2021/01/04 10:27:21;;;;;;;16.23;8.68;;;;;;;9.78;66.03;93334.00;5088662;28;20040;-71
2021/01/04 10:29:52;;;;;;;10.95;7.13;;;;;;;9.78;66.24;93334.00;5090753;28;20031;-72
2021/01/04 10:32:25;;;;;;;12.45;6.28;;;;;;;9.80;66.27;93325.69;5090367;28;20030;-72
2021/01/04 10:34:51;;;;;;;;;;;;;;;9.84;66.38;93318.63;5091258;28;20513;-72
2021/01/04 10:37:40;;;;;;;18.95;8.80;;;;;;;9.84;66.85;93323.94;5090130;28;19912;-72
2021/01/04 10:40:09;;;;;;;21.77;10.90;;;;;;;9.93;66.21;93326.56;5090208;28;20466;-72
2021/01/04 10:42:38;;;;;;;14.45;7.13;;;;;;;9.97;66.52;93322.97;5089761;28;20082;-72
2021/01/04 10:45:06;;;;;;;11.75;6.70;;;;;;;9.98;66.73;93321.84;5088812;28;20048;-73
2021/01/04 10:47:50;;;;;;;12.55;6.75;;;;;;;9.99;67.06;93311.97;5088496;28;20035;-71
2021/01/04 10:50:30;;;;;;;13.70;7.22;;;;;;;9.99;67.30;93317.28;5090054;28;20043;-72
2021/01/04 10:52:59;;;;;;;11.05;6.60;;;;;;;10.01;67.00;93315.09;5089523;28;20040;-73
2021/01/04 10:55:28;;;;;;;15.80;6.55;;;;;;;9.98;67.42;93307.75;5079752;28;20560;-73
2021/01/04 10:57:58;;;;;;;11.80;6.72;;;;;;;9.99;67.34;93296.78;5069588;28;20020;-72
2021/01/04 11:00:33;;;;;;;14.40;6.60;;;;;;;10.00;67.29;93294.91;5085588;28;20111;-71
2021/01/04 11:03:12;;;;;;;15.15;6.88;;;;;;;9.97;67.35;93287.53;5088589;28;20020;-71
2021/01/04 11:05:41;;;;;;;9.63;6.00;;;;;;;9.94;67.57;93282.88;5101937;28;20115;-71
2021/01/04 11:08:23;;;;;;;16.42;7.10;;;;;;;9.93;67.92;93270.66;5071087;28;20032;-72
2021/01/04 11:11:15;;;;;;;16.63;9.65;;;;;;;9.91;68.05;93264.88;5089483;28;20081;-71
2021/01/04 11:13:40;;;;;;;16.90;9.85;;;;;;;9.94;68.04;93266.91;5089694;28;20028;-72
2021/01/04 11:16:13;;;;;;;14.32;7.95;;;;;;;9.95;68.12;93257.81;5088420;28;20024;-71
2021/01/04 11:18:47;;;;;;;12.95;6.13;;;;;;;9.99;67.86;93254.19;5089413;28;20024;-73
2021/01/04 11:21:14;;;;;;;14.23;6.93;;;;;;;10.01;67.82;93245.88;5088432;28;20028;-72
2021/01/04 11:23:39;;;;;;;14.88;7.32;;;;;;;10.06;67.80;93247.56;5088361;28;20024;-72
2021/01/04 11:26:09;;;;;;;16.42;6.53;;;;;;;10.06;67.83;93243.03;5089497;28;20435;-72
2021/01/04 11:28:35;;;;;;;16.23;7.07;;;;;;;10.03;67.88;93231.16;5082829;28;20024;-72
2021/01/04 11:31:00;;;;;;;13.40;6.75;;;;;;;10.00;67.83;93226.44;5103455;28;20395;-72
2021/01/04 11:33:26;;;;;;;14.23;6.03;;;;;;;10.01;68.13;93216.56;5088028;28;20031;-72
2021/01/04 11:35:53;;;;;;;10.10;5.28;;;;;;;10.00;67.06;93220.34;5082147;28;20025;-72
2021/01/04 11:38:19;;;;;;;16.80;7.03;;;;;;;9.99;67.19;93213.47;5079579;28;20058;-72
2021/01/04 11:40:44;;;;;;;10.68;5.88;;;;;;;9.93;67.26;93207.56;5077352;28;20059;-71
2021/01/04 11:43:09;;;;;;;11.80;4.68;;;;;;;9.93;66.89;93202.25;5088796;28;20035;-71
2021/01/04 11:45:35;;;;;;;8.80;5.07;;;;;;;9.83;67.45;93187.44;5087971;28;20024;-71
2021/01/04 11:48:00;;;;;;;11.35;6.22;;;;;;;9.86;67.01;93186.00;5088819;28;20436;-70
2021/01/04 11:50:25;;;;;;;11.32;5.95;;;;;;;9.82;67.90;93161.91;5087284;28;20091;-70
2021/01/04 11:52:54;;;;;;;11.35;6.10;;;;;;;9.79;68.54;93154.59;5088784;28;20048;-70
2021/01/04 11:55:19;;;;;;;15.20;6.35;;;;;;;9.80;69.05;93150.81;5070845;28;20107;-70
2021/01/04 11:57:45;;;;;;;14.75;6.05;;;;;;;9.83;68.32;93128.88;5068587;28;20526;-70
2021/01/04 12:00:13;;;;;;;17.83;9.88;;;;;;;9.78;68.73;93126.41;5102995;28;20048;-69
2021/01/04 12:02:39;;;;;;;13.00;7.40;;;;;;;9.81;69.01;93124.97;5088658;28;20020;-71
2021/01/04 12:05:06;;;;;;;14.68;7.35;;;;;;;9.83;69.24;93117.44;5088920;28;20106;-71
2021/01/04 12:07:31;;;;;;;15.52;7.35;;;;;;;9.89;68.75;93128.66;5085007;28;20022;-70
2021/01/04 12:09:57;;;;;;;19.92;7.28;;;;;;;9.89;68.93;93120.69;5072510;28;20024;-71
2021/01/04 12:12:23;;;;;;;14.20;7.32;;;;;;;9.94;68.61;93118.59;5087964;28;20034;-70